Time;durP1;ratioP1;P1;durP2;ratioP2;P2;SDS_P1;SDS_P2;PMS_P1;PMS_P2;Temp;Humidity;BMP_temperature;BMP_pressure;BME280_temperature;BME280_humidity;BME280_pressure;Samples;Min_cycle;Max_cycle;Signal;HPM_P1;HPM_P2
2022/05/14 00:01:09;;;;;;;39.25;6.72;;;;;;;;;;5090995;28;20084;-59
2022/05/14 00:03:43;;;;;;;36.65;7.85;;;;;;;;;;5090817;28;20766;-58
2022/05/14 00:06:11;;;;;;;39.72;8.10;;;;;;;;;;5093072;28;20418;-59
2022/05/14 00:08:39;;;;;;;35.45;8.20;;;;;;;;;;5092460;28;20052;-57
2022/05/14 00:13:57;;;;;;;44.53;7.63;;;;;;;;;;5094744;28;20090;-55
2022/05/14 00:16:34;;;;;;;43.25;8.30;;;;;;;;;;5085062;28;20120;-53
2022/05/14 00:19:01;;;;;;;40.88;7.68;;;;;;;;;;5082501;28;20048;-55
2022/05/14 00:21:28;;;;;;;47.78;9.40;;;;;;;;;;5087670;28;20040;-55
2022/05/14 00:24:01;;;;;;;45.92;8.73;;;;;;;;;;5088081;28;20090;-56
2022/05/14 00:26:27;;;;;;;46.45;8.85;;;;;;;;;;5088968;28;20105;-62
2022/05/14 00:28:54;;;;;;;48.88;8.98;;;;;;;;;;5093873;28;20121;-52
2022/05/14 00:31:34;;;;;;;51.58;9.20;;;;;;;;;;5061982;28;20146;-58
2022/05/14 00:34:01;;;;;;;42.35;10.23;;;;;;;;;;5064041;28;20052;-58
2022/05/14 00:36:35;;;;;;;47.53;11.10;;;;;;;;;;5067231;28;20048;-57
2022/05/14 00:39:01;;;;;;;51.13;10.15;;;;;;;;;;5066312;28;20106;-56
2022/05/14 00:41:28;;;;;;;64.80;9.57;;;;;;;;;;5068836;28;20554;-58
2022/05/14 00:44:02;;;;;;;58.13;10.05;;;;;;;;;;5064057;28;20044;-58
2022/05/14 00:46:35;;;;;;;60.10;10.43;;;;;;;;;;5067081;28;20107;-58
2022/05/14 00:49:01;;;;;;;50.70;9.50;;;;;;;;;;5066730;28;20079;-52
2022/05/14 00:51:35;;;;;;;56.42;10.27;;;;;;;;;;5069725;28;20144;-54
2022/05/14 00:54:04;;;;;;;49.97;8.20;;;;;;;;;;5061589;28;20126;-52
2022/05/14 00:56:34;;;;;;;52.63;11.13;;;;;;;;;;5067848;28;20083;-53
2022/05/14 00:59:08;;;;;;;69.82;11.80;;;;;;;;;;5066970;28;20078;-54
2022/05/14 01:01:36;;;;;;;67.85;10.30;;;;;;;;;;5067009;28;20094;-54
2022/05/14 01:04:03;;;;;;;64.55;10.23;;;;;;;;;;5062975;28;20129;-55
2022/05/14 01:06:36;;;;;;;58.95;10.25;;;;;;;;;;5061834;28;20048;-61
2022/05/14 01:09:04;;;;;;;60.75;10.73;;;;;;;;;;5064887;28;20044;-61
2022/05/14 01:11:32;;;;;;;52.33;9.65;;;;;;;;;;5068570;28;20139;-62
2022/05/14 01:14:05;;;;;;;64.00;10.00;;;;;;;;;;5063864;28;20091;-60
2022/05/14 01:16:31;;;;;;;54.83;9.57;;;;;;;;;;5062587;28;20122;-61
2022/05/14 01:18:59;;;;;;;62.28;10.20;;;;;;;;;;5062730;28;20051;-61
2022/05/14 01:21:38;;;;;;;62.42;9.75;;;;;;;;;;5066265;28;20048;-62
2022/05/14 01:27:07;;;;;;;51.33;8.93;;;;;;;;;;5061319;28;20103;-56
2022/05/14 01:29:40;;;;;;;60.72;10.07;;;;;;;;;;5065453;28;20084;-56
2022/05/14 01:32:20;;;;;;;53.20;9.85;;;;;;;;;;5058273;28;20513;-56
2022/05/14 01:34:46;;;;;;;52.13;8.73;;;;;;;;;;5042448;28;21406;-55
2022/05/14 01:37:13;;;;;;;55.63;9.13;;;;;;;;;;5061025;28;20053;-57
2022/05/14 01:39:45;;;;;;;54.15;9.57;;;;;;;;;;5059871;28;20083;-57
2022/05/14 01:42:12;;;;;;;58.47;9.23;;;;;;;;;;5059629;28;20079;-59
2022/05/14 01:44:38;;;;;;;59.17;10.27;;;;;;;;;;5061289;28;20500;-60
2022/05/14 01:47:12;;;;;;;54.80;8.63;;;;;;;;;;5061232;28;20044;-61
2022/05/14 01:49:38;;;;;;;65.60;9.93;;;;;;;;;;5059646;28;20091;-61
2022/05/14 01:52:05;;;;;;;66.10;9.63;;;;;;;;;;5059233;28;20041;-59
2022/05/14 01:54:38;;;;;;;46.45;8.90;;;;;;;;;;5060180;28;20084;-61
2022/05/14 01:57:04;;;;;;;47.38;8.43;;;;;;;;;;5060502;28;20508;-61
2022/05/14 01:59:31;;;;;;;56.45;9.10;;;;;;;;;;5060241;28;20076;-61
2022/05/14 02:02:08;;;;;;;55.47;9.00;;;;;;;;;;5060984;28;20045;-61
2022/05/14 02:04:35;;;;;;;54.83;9.82;;;;;;;;;;5060621;28;20053;-54
2022/05/14 02:07:07;;;;;;;51.72;9.18;;;;;;;;;;5064658;28;20083;-59
2022/05/14 02:09:47;;;;;;;58.60;9.88;;;;;;;;;;5064719;28;20080;-59
2022/05/14 02:12:13;;;;;;;52.78;9.23;;;;;;;;;;5062755;28;20079;-59
2022/05/14 02:14:40;;;;;;;53.38;9.82;;;;;;;;;;5063990;28;20523;-59
2022/05/14 02:17:13;;;;;;;62.17;8.65;;;;;;;;;;5063655;28;20037;-59
2022/05/14 02:19:39;;;;;;;52.03;8.73;;;;;;;;;;5067185;28;20045;-58
2022/05/14 02:22:06;;;;;;;53.08;9.13;;;;;;;;;;5061885;28;20076;-58
2022/05/14 02:24:40;;;;;;;62.70;8.15;;;;;;;;;;5060257;28;20080;-57
2022/05/14 02:27:07;;;;;;;60.60;8.48;;;;;;;;;;5062786;28;20076;-56
2022/05/14 02:29:50;;;;;;;61.42;10.18;;;;;;;;;;5063931;28;20080;-57
2022/05/14 02:32:30;;;;;;;51.53;9.02;;;;;;;;;;5071453;28;20048;-56
2022/05/14 02:34:57;;;;;;;43.65;8.25;;;;;;;;;;5070078;28;20087;-56
2022/05/14 02:37:31;;;;;;;49.97;9.25;;;;;;;;;;5069358;28;20068;-58
2022/05/14 02:39:57;;;;;;;60.03;9.07;;;;;;;;;;5064945;28;20423;-58
2022/05/14 02:42:24;;;;;;;48.03;8.77;;;;;;;;;;5067603;28;20095;-55
2022/05/14 02:44:58;;;;;;;58.05;8.20;;;;;;;;;;5070980;28;20132;-56
2022/05/14 02:47:24;;;;;;;63.85;8.80;;;;;;;;;;5068887;28;20067;-57
2022/05/14 02:49:51;;;;;;;55.85;8.88;;;;;;;;;;5068071;28;20088;-57
2022/05/14 02:52:24;;;;;;;52.10;8.88;;;;;;;;;;5070128;28;20084;-57
2022/05/14 02:54:50;;;;;;;50.88;8.57;;;;;;;;;;5067380;28;20075;-58
2022/05/14 02:57:17;;;;;;;59.92;9.80;;;;;;;;;;5069984;28;20048;-57
2022/05/14 02:59:50;;;;;;;55.10;9.23;;;;;;;;;;5069943;28;20450;-55
2022/05/14 03:02:17;;;;;;;60.33;9.40;;;;;;;;;;5069041;28;20091;-57
2022/05/14 03:04:44;;;;;;;56.90;8.73;;;;;;;;;;5066358;28;20048;-57
2022/05/14 03:07:17;;;;;;;52.38;8.38;;;;;;;;;;5067112;28;20650;-57
2022/05/14 03:09:43;;;;;;;43.13;7.68;;;;;;;;;;5066762;28;20458;-57
2022/05/14 03:12:11;;;;;;;49.40;8.17;;;;;;;;;;5068965;28;20044;-58
2022/05/14 03:14:45;;;;;;;59.80;9.18;;;;;;;;;;5069915;28;20503;-57
2022/05/14 03:17:11;;;;;;;50.70;9.30;;;;;;;;;;5068020;28;20048;-57
2022/05/14 03:19:38;;;;;;;61.75;8.52;;;;;;;;;;5068684;28;21536;-56
2022/05/14 03:22:11;;;;;;;37.75;7.93;;;;;;;;;;5069142;28;20291;-59
2022/05/14 03:24:37;;;;;;;52.53;7.67;;;;;;;;;;5068497;28;20092;-59
2022/05/14 03:27:05;;;;;;;51.05;8.80;;;;;;;;;;5068645;28;20714;-59
2022/05/14 03:29:38;;;;;;;50.63;7.82;;;;;;;;;;5069232;28;20052;-58
2022/05/14 03:32:11;;;;;;;46.05;8.02;;;;;;;;;;5062302;28;20105;-59
2022/05/14 03:34:54;;;;;;;53.08;7.75;;;;;;;;;;5063904;28;20942;-59
2022/05/14 03:37:21;;;;;;;48.53;8.80;;;;;;;;;;5070160;28;20098;-55
2022/05/14 03:39:55;;;;;;;43.70;8.32;;;;;;;;;;5065360;28;20087;-56
2022/05/14 03:42:21;;;;;;;44.95;6.90;;;;;;;;;;5069563;28;20084;-58
2022/05/14 03:44:48;;;;;;;50.33;9.00;;;;;;;;;;5067056;28;20066;-57
2022/05/14 03:47:21;;;;;;;50.35;7.43;;;;;;;;;;5071147;28;20048;-57
2022/05/14 03:49:47;;;;;;;53.05;9.25;;;;;;;;;;5067712;28;20076;-58
2022/05/14 03:52:13;;;;;;;53.20;7.90;;;;;;;;;;5064668;28;20087;-56
2022/05/14 03:54:47;;;;;;;54.47;8.77;;;;;;;;;;5063092;28;20088;-57
2022/05/14 03:57:16;;;;;;;57.30;9.50;;;;;;;;;;5067576;28;20146;-59
2022/05/14 03:59:43;;;;;;;52.88;8.40;;;;;;;;;;5066438;28;20122;-53
2022/05/14 04:02:16;;;;;;;49.60;8.77;;;;;;;;;;5068809;28;20082;-54
2022/05/14 04:04:43;;;;;;;50.90;8.60;;;;;;;;;;5068290;28;20107;-55
2022/05/14 04:07:10;;;;;;;46.72;7.40;;;;;;;;;;5065950;28;20115;-54
2022/05/14 04:09:43;;;;;;;60.00;8.57;;;;;;;;;;5067229;28;20083;-55
2022/05/14 04:12:09;;;;;;;46.42;7.68;;;;;;;;;;5071493;28;20069;-55
2022/05/14 04:14:36;;;;;;;51.33;7.93;;;;;;;;;;5060479;28;20098;-59
2022/05/14 04:17:09;;;;;;;44.22;7.50;;;;;;;;;;5069896;28;20765;-55
2022/05/14 04:19:35;;;;;;;42.58;7.93;;;;;;;;;;5067882;28;20507;-59
2022/05/14 04:22:02;;;;;;;45.72;7.65;;;;;;;;;;5068466;28;20092;-59
2022/05/14 04:24:35;;;;;;;41.03;7.80;;;;;;;;;;5062435;28;20076;-59
2022/05/14 04:27:01;;;;;;;43.45;6.72;;;;;;;;;;5064058;28;20504;-58
2022/05/14 04:29:28;;;;;;;45.45;7.72;;;;;;;;;;5067391;28;20564;-59
2022/05/14 04:32:07;;;;;;;43.53;7.40;;;;;;;;;;5068670;28;20126;-58
2022/05/14 04:34:39;;;;;;;45.13;7.15;;;;;;;;;;5064180;28;20049;-61
2022/05/14 04:37:12;;;;;;;44.42;7.38;;;;;;;;;;5068250;28;20553;-61
2022/05/14 04:39:39;;;;;;;43.55;7.55;;;;;;;;;;5064401;28;20524;-61
2022/05/14 04:42:07;;;;;;;48.67;7.18;;;;;;;;;;5061211;28;20067;-60
2022/05/14 04:44:41;;;;;;;36.80;6.78;;;;;;;;;;5064193;28;20048;-61
2022/05/14 04:47:08;;;;;;;37.20;6.80;;;;;;;;;;5064177;28;20080;-61
2022/05/14 04:49:42;;;;;;;42.10;7.10;;;;;;;;;;5068780;28;20114;-61
2022/05/14 04:52:15;;;;;;;45.40;6.70;;;;;;;;;;5064797;28;20098;-61
2022/05/14 04:54:42;;;;;;;41.43;7.37;;;;;;;;;;5065829;28;20510;-58
2022/05/14 04:57:08;;;;;;;41.47;7.20;;;;;;;;;;5065003;28;20745;-60
2022/05/14 04:59:42;;;;;;;36.50;5.85;;;;;;;;;;5065929;28;20045;-60
2022/05/14 05:05:00;;;;;;;27.08;5.63;;;;;;;;;;5066951;28;20048;-59
2022/05/14 05:07:26;;;;;;;41.53;7.25;;;;;;;;;;5064217;28;20391;-60
2022/05/14 05:09:53;;;;;;;39.25;7.13;;;;;;;;;;5067622;28;20076;-59
2022/05/14 05:12:27;;;;;;;32.15;6.45;;;;;;;;;;5061966;28;20500;-57
2022/05/14 05:14:53;;;;;;;45.22;6.30;;;;;;;;;;5066679;28;20048;-57
2022/05/14 05:17:20;;;;;;;38.08;6.60;;;;;;;;;;5065806;28;20056;-54
2022/05/14 05:19:53;;;;;;;29.00;5.57;;;;;;;;;;5061557;28;20036;-56
2022/05/14 05:22:19;;;;;;;37.10;5.70;;;;;;;;;;5066775;28;20045;-55
2022/05/14 05:24:46;;;;;;;25.80;5.72;;;;;;;;;;5062448;28;20084;-54
2022/05/14 05:27:19;;;;;;;33.25;5.60;;;;;;;;;;5066244;28;20063;-54
2022/05/14 05:29:45;;;;;;;35.70;5.95;;;;;;;;;;5063477;28;20071;-54
2022/05/14 05:32:12;;;;;;;29.60;5.70;;;;;;;;;;5064241;28;20087;-61
2022/05/14 05:34:45;;;;;;;31.42;5.07;;;;;;;;;;5062123;28;20504;-55
2022/05/14 05:37:11;;;;;;;30.73;5.35;;;;;;;;;;5061366;28;20139;-54
2022/05/14 05:39:38;;;;;;;32.55;6.13;;;;;;;;;;5061024;28;20075;-55
2022/05/14 05:42:11;;;;;;;36.38;6.22;;;;;;;;;;5065679;28;20483;-54
2022/05/14 05:44:41;;;;;;;29.30;5.00;;;;;;;;;;5057701;28;20722;-53
2022/05/14 05:47:07;;;;;;;17.88;3.80;;;;;;;;;;5063831;28;20080;-53
2022/05/14 05:49:42;;;;;;;31.33;4.53;;;;;;;;;;5066222;28;20072;-57
2022/05/14 05:52:11;;;;;;;26.10;4.38;;;;;;;;;;5064921;28;20411;-59
2022/05/14 05:57:30;;;;;;;18.83;4.32;;;;;;;;;;5058435;28;20130;-57
2022/05/14 05:59:56;;;;;;;20.90;3.53;;;;;;;;;;5064036;28;20088;-56
2022/05/14 06:02:22;;;;;;;24.25;4.32;;;;;;;;;;5060893;28;20095;-53
2022/05/14 06:04:56;;;;;;;23.70;4.05;;;;;;;;;;5061911;28;20099;-56
2022/05/14 06:07:23;;;;;;;26.15;4.72;;;;;;;;;;5068012;28;20080;-55
2022/05/14 06:09:49;;;;;;;16.90;3.50;;;;;;;;;;5063712;28;20053;-63
2022/05/14 06:12:23;;;;;;;20.73;3.72;;;;;;;;;;5063638;28;20056;-55
2022/05/14 06:14:50;;;;;;;21.83;3.80;;;;;;;;;;5065421;28;20156;-57
2022/05/14 06:17:16;;;;;;;23.85;4.50;;;;;;;;;;5063735;28;20045;-57
2022/05/14 06:19:50;;;;;;;12.63;3.53;;;;;;;;;;5062459;28;20063;-57
2022/05/14 06:22:16;;;;;;;22.83;3.55;;;;;;;;;;5067444;28;20048;-56
2022/05/14 06:24:43;;;;;;;18.67;3.20;;;;;;;;;;5066503;28;20102;-57
2022/05/14 06:27:16;;;;;;;23.23;3.83;;;;;;;;;;5065385;28;20500;-55
2022/05/14 06:29:42;;;;;;;16.98;3.30;;;;;;;;;;5061905;28;20052;-55
2022/05/14 06:32:09;;;;;;;14.73;2.75;;;;;;;;;;5085189;28;20050;-54
2022/05/14 06:34:48;;;;;;;13.95;3.05;;;;;;;;;;5087458;28;20078;-56
2022/05/14 06:37:15;;;;;;;11.60;2.50;;;;;;;;;;5083724;28;20074;-54
2022/05/14 06:39:42;;;;;;;14.98;3.00;;;;;;;;;;5085011;28;20118;-56
2022/05/14 06:42:15;;;;;;;13.50;3.33;;;;;;;;;;5085843;28;20419;-54
2022/05/14 06:44:42;;;;;;;13.65;3.05;;;;;;;;;;5077218;28;20048;-53
2022/05/14 06:47:10;;;;;;;19.05;3.00;;;;;;;;;;5082024;28;20052;-55
2022/05/14 06:49:43;;;;;;;15.45;3.30;;;;;;;;;;5085063;28;20087;-56
2022/05/14 06:52:12;;;;;;;14.13;2.97;;;;;;;;;;5096194;28;20462;-56
2022/05/14 06:54:40;;;;;;;13.65;2.35;;;;;;;;;;5092956;28;20125;-55
2022/05/14 06:57:13;;;;;;;16.83;2.80;;;;;;;;;;5091574;28;20075;-56
2022/05/14 06:59:39;;;;;;;14.30;3.43;;;;;;;;;;5092855;28;20698;-54
2022/05/14 07:02:06;;;;;;;14.73;2.85;;;;;;;;;;5089560;28;20135;-56
2022/05/14 07:07:25;;;;;;;14.15;2.75;;;;;;;;;;5091818;28;20086;-57
2022/05/14 07:10:00;;;;;;;14.88;2.60;;;;;;;;;;5090720;28;20039;-54
2022/05/14 07:12:26;;;;;;;15.10;3.03;;;;;;;;;;5084650;28;20052;-53
2022/05/14 07:14:54;;;;;;;13.13;2.72;;;;;;;;;;5086936;28;20392;-55
2022/05/14 07:17:28;;;;;;;14.65;2.72;;;;;;;;;;5084100;28;20048;-54
2022/05/14 07:19:55;;;;;;;14.23;3.25;;;;;;;;;;5084132;28;20044;-50
2022/05/14 07:22:21;;;;;;;11.25;2.10;;;;;;;;;;5087563;28;20051;-54
2022/05/14 07:24:55;;;;;;;13.10;2.30;;;;;;;;;;5090064;28;20569;-52
2022/05/14 07:27:22;;;;;;;10.90;2.22;;;;;;;;;;5093552;28;20087;-58
2022/05/14 07:29:48;;;;;;;12.23;1.77;;;;;;;;;;5089743;28;20093;-62
2022/05/14 07:32:28;;;;;;;13.80;2.63;;;;;;;;;;5069306;28;20052;-62
2022/05/14 07:34:54;;;;;;;9.60;2.00;;;;;;;;;;5059885;28;20048;-62
2022/05/14 07:37:25;;;;;;;12.68;2.60;;;;;;;;;;5064391;28;20526;-63
2022/05/14 07:40:10;;;;;;;17.65;2.55;;;;;;;;;;5068613;28;20137;-62
2022/05/14 07:42:39;;;;;;;7.97;1.90;;;;;;;;;;5068350;28;20071;-62
2022/05/14 07:45:15;;;;;;;7.88;2.25;;;;;;;;;;5064201;28;20045;-55
2022/05/14 07:47:42;;;;;;;6.40;2.00;;;;;;;;;;5064394;28;20068;-63
2022/05/14 07:50:09;;;;;;;9.93;2.30;;;;;;;;;;5061956;28;20057;-62
2022/05/14 07:52:42;;;;;;;6.55;1.90;;;;;;;;;;5063564;28;20087;-63
2022/05/14 07:55:09;;;;;;;11.65;1.73;;;;;;;;;;5070336;28;21030;-63
2022/05/14 07:57:36;;;;;;;15.60;2.50;;;;;;;;;;5064406;28;20143;-62
2022/05/14 08:00:09;;;;;;;6.75;2.10;;;;;;;;;;5066207;28;20115;-63
2022/05/14 08:02:41;;;;;;;5.13;1.45;;;;;;;;;;5062762;28;20071;-63
2022/05/14 08:05:10;;;;;;;6.47;2.33;;;;;;;;;;5060412;28;20544;-50
2022/05/14 08:07:44;;;;;;;4.68;1.70;;;;;;;;;;5059794;28;20048;-54
2022/05/14 08:10:13;;;;;;;9.60;1.90;;;;;;;;;;5064911;28;20049;-53
2022/05/14 08:12:41;;;;;;;7.28;1.85;;;;;;;;;;5064372;28;22238;-52
2022/05/14 08:15:21;;;;;;;5.32;1.60;;;;;;;;;;5070091;28;20060;-54
2022/05/14 08:17:48;;;;;;;8.68;1.48;;;;;;;;;;5060346;28;20076;-54
2022/05/14 08:20:21;;;;;;;3.90;1.40;;;;;;;;;;5061992;28;20072;-53
2022/05/14 08:25:41;;;;;;;7.72;1.58;;;;;;;;;;5038300;28;20103;-64
2022/05/14 08:28:07;;;;;;;3.80;1.20;;;;;;;;;;5063087;28;20099;-49
2022/05/14 08:30:34;;;;;;;8.43;1.92;;;;;;;;;;5062821;28;20095;-50
2022/05/14 08:33:13;;;;;;;4.20;0.90;;;;;;;;;;5062527;28;20040;-52
2022/05/14 08:35:40;;;;;;;4.63;1.00;;;;;;;;;;5064180;28;20052;-49
2022/05/14 08:38:16;;;;;;;2.72;0.70;;;;;;;;;;5063946;28;20118;-52
2022/05/14 08:40:46;;;;;;;4.32;1.00;;;;;;;;;;5061456;28;20076;-48
2022/05/14 08:43:15;;;;;;;4.55;1.20;;;;;;;;;;5069618;28;20124;-66
2022/05/14 08:45:48;;;;;;;1.27;0.63;;;;;;;;;;5064689;28;20147;-58
2022/05/14 08:48:17;;;;;;;2.58;0.63;;;;;;;;;;5060873;28;20072;-59
2022/05/14 08:50:54;;;;;;;1.67;0.80;;;;;;;;;;5063909;28;20041;-58
2022/05/14 08:53:28;;;;;;;2.92;0.75;;;;;;;;;;5062565;28;20905;-58
2022/05/14 08:56:13;;;;;;;5.13;1.33;;;;;;;;;;5068599;28;20423;-58
2022/05/14 08:58:57;;;;;;;7.32;1.00;;;;;;;;;;5064966;28;20099;-58
2022/05/14 09:01:25;;;;;;;2.72;0.70;;;;;;;;;;5060428;28;20106;-53
2022/05/14 09:03:58;;;;;;;1.50;0.70;;;;;;;;;;5061730;28;20095;-61
2022/05/14 09:06:24;;;;;;;2.63;1.10;;;;;;;;;;5066211;28;20099;-62
2022/05/14 09:08:51;;;;;;;10.25;1.45;;;;;;;;;;5071116;28;20313;-61
2022/05/14 09:11:47;;;;;;;3.65;0.80;;;;;;;;;;5063077;28;20086;-61
2022/05/14 09:14:23;;;;;;;5.07;0.80;;;;;;;;;;5059474;28;20106;-61
2022/05/14 09:17:02;;;;;;;5.35;1.13;;;;;;;;;;5068934;28;20082;-61
2022/05/14 09:19:37;;;;;;;2.58;0.73;;;;;;;;;;5059502;28;20048;-59
2022/05/14 09:22:26;;;;;;;3.63;1.02;;;;;;;;;;5060559;28;20563;-55
2022/05/14 09:24:54;;;;;;;2.00;0.60;;;;;;;;;;5059357;28;20504;-57
2022/05/14 09:27:40;;;;;;;1.20;0.70;;;;;;;;;;5061417;28;20076;-57
2022/05/14 09:30:10;;;;;;;4.15;0.57;;;;;;;;;;5063533;28;20542;-57
2022/05/14 09:32:51;;;;;;;4.85;1.00;;;;;;;;;;5054107;28;20481;-57
2022/05/14 09:35:20;;;;;;;2.95;1.05;;;;;;;;;;5059127;28;20076;-57
2022/05/14 09:38:05;;;;;;;4.60;1.35;;;;;;;;;;5055744;28;20455;-58
2022/05/14 09:40:32;;;;;;;4.75;0.90;;;;;;;;;;5053953;28;20515;-59
2022/05/14 09:43:14;;;;;;;3.22;1.10;;;;;;;;;;5056407;28;20064;-57
2022/05/14 09:45:42;;;;;;;3.95;1.10;;;;;;;;;;5054456;28;20115;-56
2022/05/14 09:48:16;;;;;;;6.18;1.40;;;;;;;;;;5055746;28;20132;-56
2022/05/14 09:50:44;;;;;;;3.40;1.10;;;;;;;;;;5054455;28;20091;-57
2022/05/14 09:53:11;;;;;;;4.00;1.00;;;;;;;;;;5057449;28;20083;-57
2022/05/14 09:56:08;;;;;;;5.85;1.40;;;;;;;;;;5058543;28;20076;-57
2022/05/14 09:58:44;;;;;;;3.53;1.20;;;;;;;;;;5041208;28;20079;-59
2022/05/14 10:01:28;;;;;;;4.28;1.20;;;;;;;;;;5057484;28;20582;-69
2022/05/14 10:03:55;;;;;;;3.10;1.17;;;;;;;;;;5057579;28;20058;-70
2022/05/14 10:06:32;;;;;;;4.80;1.30;;;;;;;;;;5055408;28;20143;-70
2022/05/14 10:08:58;;;;;;;6.35;1.38;;;;;;;;;;5056207;28;20500;-70
2022/05/14 10:11:46;;;;;;;5.32;1.38;;;;;;;;;;5057242;28;20049;-70
2022/05/14 10:14:42;;;;;;;5.65;1.50;;;;;;;;;;5058041;28;20539;-69
2022/05/14 10:17:28;;;;;;;6.45;1.50;;;;;;;;;;5057592;28;20579;-57
2022/05/14 10:20:05;;;;;;;3.75;0.90;;;;;;;;;;5059600;28;20565;-51
2022/05/14 10:28:57;;;;;;;3.13;1.10;;;;;;;;;;5059767;28;20470;-49
2022/05/14 10:31:49;;;;;;;8.40;1.65;;;;;;;;;;5061494;28;20056;-49
2022/05/14 10:34:18;;;;;;;3.67;1.02;;;;;;;;;;5066101;28;20079;-52
2022/05/14 10:37:03;;;;;;;2.60;0.85;;;;;;;;;;5050297;28;20076;-57
2022/05/14 10:39:39;;;;;;;4.43;0.82;;;;;;;;;;5059391;28;20053;-50
2022/05/14 10:42:44;;;;;;;2.67;0.90;;;;;;;;;;5064582;28;20072;-49
2022/05/14 10:45:17;;;;;;;1.55;0.68;;;;;;;;;;5006397;28;20044;-49
2022/05/14 10:48:05;;;;;;;2.17;0.68;;;;;;;;;;5066235;28;20657;-50
2022/05/14 10:50:31;;;;;;;3.72;1.02;;;;;;;;;;5069763;28;20079;-51
2022/05/14 10:53:06;;;;;;;2.03;0.98;;;;;;;;;;5064413;28;20412;-48
2022/05/14 10:55:35;;;;;;;4.07;1.10;;;;;;;;;;5071559;28;20530;-50
2022/05/14 10:58:07;;;;;;;7.10;1.40;;;;;;;;;;5068000;28;20080;-58
2022/05/14 11:00:40;;;;;;;;;;;;;;;;;;5068908;28;20080;-57
2022/05/14 11:03:10;;;;;;;3.60;0.95;;;;;;;;;;5066593;28;19920;-57
2022/05/14 11:06:15;;;;;;;4.72;0.93;;;;;;;;;;5068511;28;20083;-58
2022/05/14 11:08:49;;;;;;;4.78;1.30;;;;;;;;;;4969050;28;20077;-58
2022/05/14 11:11:20;;;;;;;6.30;1.17;;;;;;;;;;4970567;28;20159;-58
2022/05/14 11:13:55;;;;;;;9.20;1.35;;;;;;;;;;5021509;28;20084;-60
2022/05/14 11:16:36;;;;;;;5.57;1.10;;;;;;;;;;5069054;28;20048;-48
2022/05/14 11:19:04;;;;;;;8.48;1.20;;;;;;;;;;5068974;28;20048;-53
2022/05/14 11:21:39;;;;;;;4.20;0.93;;;;;;;;;;5072185;28;20110;-50
2022/05/14 11:24:06;;;;;;;7.75;1.30;;;;;;;;;;5063763;28;20080;-49
2022/05/14 11:26:42;;;;;;;5.70;1.23;;;;;;;;;;5060882;28;20084;-48
2022/05/14 11:29:22;;;;;;;3.08;0.95;;;;;;;;;;5070715;28;20080;-47
2022/05/14 11:32:03;;;;;;;1.67;1.00;;;;;;;;;;5076288;28;20145;-53
2022/05/14 11:34:37;;;;;;;4.60;1.13;;;;;;;;;;5091085;28;20137;-60
2022/05/14 11:37:05;;;;;;;8.20;1.55;;;;;;;;;;5090118;28;20075;-59
2022/05/14 11:39:34;;;;;;;7.63;1.08;;;;;;;;;;5096112;28;20581;-58
2022/05/14 11:42:29;;;;;;;2.45;1.13;;;;;;;;;;5093094;28;20058;-58
2022/05/14 11:45:11;;;;;;;3.42;1.13;;;;;;;;;;5090585;28;20044;-58
2022/05/14 11:47:57;;;;;;;4.78;0.80;;;;;;;;;;5093132;28;20052;-58
2022/05/14 11:50:29;;;;;;;4.13;1.20;;;;;;;;;;5092359;28;20080;-57
2022/05/14 11:53:18;;;;;;;3.40;1.15;;;;;;;;;;5093360;28;20083;-59
2022/05/14 11:55:52;;;;;;;3.08;0.73;;;;;;;;;;5090183;28;20064;-55
2022/05/14 11:58:50;;;;;;;2.17;0.80;;;;;;;;;;5088393;28;20051;-49
2022/05/14 12:01:19;;;;;;;2.17;0.73;;;;;;;;;;5097476;28;20051;-54
2022/05/14 12:03:53;;;;;;;1.55;0.65;;;;;;;;;;5073591;28;20077;-54
2022/05/14 12:06:30;;;;;;;3.90;0.93;;;;;;;;;;5092138;28;20104;-52
2022/05/14 12:09:32;;;;;;;3.22;0.80;;;;;;;;;;5090221;28;20082;-54
2022/05/14 12:12:13;;;;;;;3.47;1.00;;;;;;;;;;5073733;28;20123;-61
2022/05/14 12:14:47;;;;;;;3.72;1.13;;;;;;;;;;5089380;28;20627;-59
2022/05/14 12:17:16;;;;;;;4.38;1.02;;;;;;;;;;5091252;28;20071;-60
2022/05/14 12:19:44;;;;;;;3.80;0.98;;;;;;;;;;5092289;28;20044;-60
2022/05/14 12:22:19;;;;;;;3.78;1.15;;;;;;;;;;5093951;28;20490;-60
2022/05/14 12:24:54;;;;;;;4.30;1.27;;;;;;;;;;5087882;28;20090;-60
2022/05/14 12:27:28;;;;;;;5.10;1.05;;;;;;;;;;5086313;28;20052;-60
2022/05/14 12:29:56;;;;;;;2.55;0.88;;;;;;;;;;5086686;28;20071;-71
2022/05/14 12:35:16;;;;;;;4.13;1.13;;;;;;;;;;5089032;28;20071;-58
2022/05/14 12:37:43;;;;;;;3.00;0.98;;;;;;;;;;5090690;28;20141;-58
2022/05/14 12:40:18;;;;;;;2.28;0.70;;;;;;;;;;5086825;28;20117;-58
2022/05/14 12:42:51;;;;;;;2.85;1.10;;;;;;;;;;5081521;28;20036;-58
2022/05/14 12:45:18;;;;;;;5.73;1.00;;;;;;;;;;5087910;28;20083;-58
2022/05/14 12:47:50;;;;;;;4.73;1.13;;;;;;;;;;5088540;28;20404;-58
2022/05/14 12:50:32;;;;;;;8.00;1.15;;;;;;;;;;5089357;28;20080;-70
2022/05/14 12:53:00;;;;;;;6.07;1.05;;;;;;;;;;5087552;28;20494;-61
2022/05/14 12:55:38;;;;;;;4.40;1.00;;;;;;;;;;5087304;28;20371;-61
2022/05/14 12:58:06;;;;;;;3.55;1.17;;;;;;;;;;5087607;28;20083;-60
2022/05/14 13:00:34;;;;;;;2.03;0.82;;;;;;;;;;5091235;28;20072;-61
2022/05/14 13:03:24;;;;;;;1.77;0.85;;;;;;;;;;5087928;28;20105;-61
2022/05/14 13:05:59;;;;;;;1.77;0.90;;;;;;;;;;5093736;28;20055;-61
2022/05/14 13:08:32;;;;;;;2.78;0.73;;;;;;;;;;5085733;28;20086;-59
2022/05/14 13:11:00;;;;;;;6.30;0.93;;;;;;;;;;5084136;28;22139;-52
2022/05/14 13:13:30;;;;;;;4.32;1.10;;;;;;;;;;5088731;28;20101;-54
2022/05/14 13:16:11;;;;;;;4.00;0.98;;;;;;;;;;5090789;28;20123;-50
2022/05/14 13:18:40;;;;;;;5.15;0.80;;;;;;;;;;5084198;28;20055;-51
2022/05/14 13:21:20;;;;;;;4.88;0.80;;;;;;;;;;5086178;28;20611;-52
2022/05/14 13:23:52;;;;;;;2.72;1.00;;;;;;;;;;5093813;28;20051;-51
2022/05/14 13:26:25;;;;;;;2.17;1.30;;;;;;;;;;5083895;28;20542;-53
2022/05/14 13:28:51;;;;;;;4.88;0.80;;;;;;;;;;5085839;28;20052;-60
2022/05/14 13:31:19;;;;;;;6.18;1.27;;;;;;;;;;5081199;28;20127;-62
2022/05/14 13:37:22;;;;;;;3.33;1.10;;;;;;;;;;5078997;28;20036;-61
2022/05/14 13:39:56;;;;;;;4.28;1.20;;;;;;;;;;5010372;28;20564;-61
2022/05/14 13:42:25;;;;;;;4.78;1.10;;;;;;;;;;5074090;28;20048;-61
2022/05/14 13:45:15;;;;;;;2.80;1.05;;;;;;;;;;5089066;28;20040;-62
2022/05/14 13:47:54;;;;;;;3.72;1.20;;;;;;;;;;5074719;28;20625;-53
2022/05/14 13:50:22;;;;;;;4.13;1.15;;;;;;;;;;5085036;28;20572;-51
2022/05/14 13:52:56;;;;;;;5.75;1.17;;;;;;;;;;5083670;28;20095;-52
2022/05/14 13:55:31;;;;;;;2.33;1.00;;;;;;;;;;5084346;28;20281;-50
2022/05/14 13:58:07;;;;;;;6.85;1.08;;;;;;;;;;5085063;28;20090;-51
2022/05/14 14:00:53;;;;;;;4.57;1.02;;;;;;;;;;5087150;28;20076;-51
2022/05/14 14:03:50;;;;;;;2.97;1.00;;;;;;;;;;5090740;28;20148;-53
2022/05/14 14:06:18;;;;;;;6.25;1.25;;;;;;;;;;5077902;28;20134;-59
2022/05/14 14:08:51;;;;;;;3.38;1.70;;;;;;;;;;5090070;28;20140;-59
2022/05/14 14:11:20;;;;;;;4.40;1.48;;;;;;;;;;5084014;28;20051;-59
2022/05/14 14:13:47;;;;;;;5.53;1.15;;;;;;;;;;5086770;28;20931;-59
2022/05/14 14:16:20;;;;;;;3.90;1.27;;;;;;;;;;5086450;28;20048;-58
2022/05/14 14:18:47;;;;;;;2.33;0.63;;;;;;;;;;5089920;28;20511;-59
2022/05/14 14:21:13;;;;;;;5.10;1.17;;;;;;;;;;5094615;28;20051;-59
2022/05/14 14:23:50;;;;;;;5.00;1.20;;;;;;;;;;5086323;28;20083;-58
2022/05/14 14:26:17;;;;;;;2.95;0.93;;;;;;;;;;5084894;28;20079;-53
2022/05/14 14:28:46;;;;;;;2.03;0.93;;;;;;;;;;5083259;28;20071;-61
2022/05/14 14:31:26;;;;;;;1.52;0.70;;;;;;;;;;5083824;27;20096;-61
2022/05/14 14:34:00;;;;;;;3.58;0.80;;;;;;;;;;5065132;28;20127;-61
2022/05/14 14:36:33;;;;;;;4.53;1.20;;;;;;;;;;5061475;28;20122;-61
2022/05/14 14:39:01;;;;;;;4.70;1.35;;;;;;;;;;5057759;28;20352;-61
2022/05/14 14:41:28;;;;;;;5.03;1.00;;;;;;;;;;5066616;28;20570;-61
2022/05/14 14:44:02;;;;;;;3.90;0.90;;;;;;;;;;5070800;28;20079;-70
2022/05/14 14:46:30;;;;;;;4.20;1.10;;;;;;;;;;5062787;28;20056;-70
2022/05/14 14:48:57;;;;;;;6.95;1.60;;;;;;;;;;5066848;28;20090;-70
2022/05/14 14:51:31;;;;;;;5.47;1.35;;;;;;;;;;5064583;28;20076;-71
2022/05/14 14:53:58;;;;;;;5.60;1.10;;;;;;;;;;5068806;28;20084;-70
2022/05/14 14:56:24;;;;;;;5.50;1.15;;;;;;;;;;5067922;28;20056;-70
2022/05/14 14:59:10;;;;;;;4.93;1.38;;;;;;;;;;5148754;22;20747;-49
2022/05/14 15:01:46;;;;;;;4.05;1.05;;;;;;;;;;5006747;28;20085;-45
2022/05/14 15:04:23;;;;;;;2.78;0.95;;;;;;;;;;5004010;28;20042;-44
2022/05/14 15:06:50;;;;;;;3.90;1.05;;;;;;;;;;5012294;28;20461;-45
2022/05/14 15:09:17;;;;;;;3.22;1.20;;;;;;;;;;5006414;28;20511;-49
2022/05/14 15:11:50;;;;;;;3.05;1.10;;;;;;;;;;5002353;28;20081;-47
2022/05/14 15:14:19;;;;;;;3.17;1.20;;;;;;;;;;5001142;28;20488;-56
2022/05/14 15:16:45;;;;;;;2.63;1.20;;;;;;;;;;5004716;28;20084;-48
2022/05/14 15:19:19;;;;;;;2.88;1.10;;;;;;;;;;5003961;28;20041;-47
2022/05/14 15:21:46;;;;;;;2.55;1.00;;;;;;;;;;5004645;28;20078;-51
2022/05/14 15:24:12;;;;;;;1.98;0.82;;;;;;;;;;5002128;28;20053;-49
2022/05/14 15:26:45;;;;;;;3.88;1.20;;;;;;;;;;5000518;28;20133;-50
2022/05/14 15:29:12;;;;;;;6.57;1.10;;;;;;;;;;5003782;28;20098;-51
2022/05/14 15:31:45;;;;;;;2.42;1.05;;;;;;;;;;5003910;28;20100;-53
2022/05/14 15:34:19;;;;;;;3.60;0.90;;;;;;;;;;5000866;28;20061;-50